Time;durP1;ratioP1;P1;durP2;ratioP2;P2;SDS_P1;SDS_P2;PMS_P1;PMS_P2;Temp;Humidity;BMP_temperature;BMP_pressure;BME280_temperature;BME280_humidity;BME280_pressure;Samples;Min_cycle;Max_cycle;Signal;HPM_P1;HPM_P2
2022/07/08 00:02:04;;;;;;;8.77;3.33;;;15.00;1.00;;;;;;5075985;28;20160;-68
2022/07/08 00:04:29;;;;;;;11.50;3.17;;;15.00;1.00;;;;;;5075916;28;20165;-67
2022/07/08 00:06:55;;;;;;;14.13;3.67;;;15.00;1.00;;;;;;5075866;28;20633;-67
2022/07/08 00:09:21;;;;;;;15.47;3.83;;;14.90;1.00;;;;;;5075626;28;20626;-68
2022/07/08 00:11:47;;;;;;;13.70;3.40;;;14.90;1.00;;;;;;5075573;28;20631;-67
2022/07/08 00:14:13;;;;;;;12.97;3.60;;;14.90;1.00;;;;;;5075551;28;20176;-68
2022/07/08 00:16:40;;;;;;;9.23;3.37;;;14.90;1.00;;;;;;5075957;28;20168;-67
2022/07/08 00:19:14;;;;;;;12.27;3.50;;;14.80;1.70;;;;;;5075951;28;20295;-67
2022/07/08 00:21:40;;;;;;;7.90;4.33;;;14.80;3.20;;;;;;5075776;28;20183;-68
2022/07/08 00:24:06;;;;;;;10.97;4.00;;;14.70;6.30;;;;;;5075679;28;20204;-68
2022/07/08 00:26:32;;;;;;;9.50;3.57;;;14.70;5.50;;;;;;5075190;28;20610;-67
2022/07/08 00:28:57;;;;;;;20.90;4.30;;;14.70;5.30;;;;;;5075380;28;20701;-68
2022/07/08 00:31:23;;;;;;;231.27;17.50;;;14.60;9.40;;;;;;5075429;28;20176;-67
2022/07/08 00:33:49;;;;;;;14.37;3.43;;;14.60;12.10;;;;;;5075673;28;20165;-68
2022/07/08 00:36:15;;;;;;;17.60;4.70;;;14.60;11.90;;;;;;5075343;28;20169;-68
2022/07/08 00:38:40;;;;;;;13.13;3.77;;;14.60;14.50;;;;;;5075408;28;20249;-66
2022/07/08 00:41:06;;;;;;;12.87;3.43;;;14.60;11.60;;;;;;5075208;28;20172;-68
2022/07/08 00:43:38;;;;;;;18.23;4.10;;;14.60;13.60;;;;;;5075518;28;20165;-67
2022/07/08 00:46:04;;;;;;;14.67;3.83;;;14.60;10.20;;;;;;5075582;28;20167;-67
2022/07/08 00:48:29;;;;;;;12.23;3.53;;;14.60;12.80;;;;;;5075229;28;20200;-67
2022/07/08 00:50:59;;;;;;;7.63;3.63;;;14.50;12.40;;;;;;5075156;28;20533;-67
2022/07/08 00:53:25;;;;;;;8.00;3.33;;;14.50;15.30;;;;;;5074956;28;20173;-68
2022/07/08 00:55:51;;;;;;;9.50;3.50;;;14.60;13.40;;;;;;5075328;28;20225;-68
2022/07/08 00:58:17;;;;;;;13.37;3.30;;;14.50;13.30;;;;;;5075103;28;20241;-67
2022/07/08 01:00:43;;;;;;;11.33;2.93;;;14.60;10.40;;;;;;5074953;28;20299;-68
2022/07/08 01:03:08;;;;;;;6.93;3.17;;;14.50;12.80;;;;;;5074971;28;20206;-68
2022/07/08 01:05:34;;;;;;;8.97;3.27;;;14.50;16.60;;;;;;5074896;28;20180;-67
2022/07/08 01:07:59;;;;;;;11.83;3.60;;;14.50;15.10;;;;;;5074816;28;20274;-66
2022/07/08 01:10:25;;;;;;;10.07;3.40;;;14.50;16.80;;;;;;5074633;28;20224;-68
2022/07/08 01:12:51;;;;;;;7.33;2.97;;;14.50;17.80;;;;;;5073707;28;20179;-68
2022/07/08 01:15:16;;;;;;;8.40;3.17;;;14.40;17.20;;;;;;5074933;28;20525;-68
2022/07/08 01:17:44;;;;;;;9.87;3.73;;;14.40;19.60;;;;;;5074592;28;20613;-68
2022/07/08 01:20:11;;;;;;;12.70;3.27;;;14.50;21.60;;;;;;5074470;28;20220;-67
2022/07/08 01:22:36;;;;;;;12.77;4.20;;;14.50;20.00;;;;;;5074335;28;20180;-67
2022/07/08 01:25:04;;;;;;;12.17;3.83;;;14.40;19.60;;;;;;5073851;28;20177;-67
2022/07/08 01:27:29;;;;;;;10.27;3.50;;;14.40;21.50;;;;;;5074109;28;20564;-67
2022/07/08 01:29:55;;;;;;;12.40;3.30;;;14.40;22.10;;;;;;5074457;28;20221;-67
2022/07/08 01:32:20;;;;;;;6.93;3.13;;;14.40;20.80;;;;;;5074372;28;20187;-67
2022/07/08 01:34:46;;;;;;;9.70;3.30;;;14.40;22.00;;;;;;5074402;28;20176;-68
2022/07/08 01:37:12;;;;;;;11.03;3.23;;;14.30;22.70;;;;;;5073821;28;20184;-67
2022/07/08 01:39:37;;;;;;;12.17;3.47;;;14.20;26.40;;;;;;5074205;28;20200;-66
2022/07/08 01:42:03;;;;;;;11.93;3.77;;;14.20;29.40;;;;;;5074228;28;20253;-67
2022/07/08 01:44:29;;;;;;;11.90;3.17;;;14.10;31.20;;;;;;5074007;28;20176;-68
2022/07/08 01:46:54;;;;;;;12.07;3.80;;;14.10;33.60;;;;;;5073983;28;20204;-68
2022/07/08 01:49:20;;;;;;;13.80;3.43;;;14.10;37.30;;;;;;5073793;28;20271;-67
2022/07/08 01:51:46;;;;;;;13.67;4.20;;;14.00;37.50;;;;;;5073741;28;20255;-66
2022/07/08 01:54:11;;;;;;;9.80;3.63;;;14.00;40.70;;;;;;5073962;28;20234;-67
2022/07/08 01:56:37;;;;;;;11.50;4.03;;;14.00;41.70;;;;;;5073760;28;20247;-67
2022/07/08 01:59:03;;;;;;;10.27;3.20;;;14.00;43.20;;;;;;5073879;28;20204;-67
2022/07/08 02:01:28;;;;;;;18.70;3.63;;;14.00;42.90;;;;;;5073936;28;20175;-67
2022/07/08 02:03:54;;;;;;;12.33;4.60;;;14.00;44.00;;;;;;5073606;28;20208;-67
2022/07/08 02:06:19;;;;;;;12.17;4.70;;;13.90;47.80;;;;;;5073631;28;20169;-66
2022/07/08 02:08:45;;;;;;;12.37;4.17;;;14.00;46.70;;;;;;5073172;28;20216;-66
2022/07/08 02:13:55;;;;;;;11.67;3.40;;;14.00;47.50;;;;;;5073562;28;20682;-67
2022/07/08 02:16:20;;;;;;;9.07;3.43;;;13.90;46.30;;;;;;5073394;28;20176;-66
2022/07/08 02:18:46;;;;;;;12.23;4.27;;;14.00;47.80;;;;;;5073548;28;20254;-66
2022/07/08 02:21:11;;;;;;;10.73;3.20;;;14.00;46.10;;;;;;5073283;28;20727;-66
2022/07/08 02:23:37;;;;;;;10.90;3.57;;;14.00;46.60;;;;;;5073620;28;20176;-66
2022/07/08 02:26:03;;;;;;;13.30;3.63;;;14.00;49.30;;;;;;5073445;28;20183;-66
2022/07/08 02:28:28;;;;;;;8.40;3.77;;;14.00;47.60;;;;;;5073228;28;20215;-66
2022/07/08 02:30:54;;;;;;;13.00;3.57;;;13.90;50.40;;;;;;5073030;28;20172;-66
2022/07/08 02:33:19;;;;;;;13.40;3.40;;;13.90;51.90;;;;;;5073528;28;20694;-66
2022/07/08 02:35:45;;;;;;;11.37;3.13;;;13.90;50.40;;;;;;5072958;28;20168;-66
2022/07/08 02:38:10;;;;;;;9.27;3.30;;;13.90;50.70;;;;;;5071870;28;20179;-67
2022/07/08 02:40:36;;;;;;;8.83;3.13;;;13.90;51.60;;;;;;5071836;28;20293;-66
2022/07/08 02:43:02;;;;;;;9.77;3.50;;;13.80;50.90;;;;;;5073338;28;20161;-66
2022/07/08 02:45:27;;;;;;;8.73;3.40;;;13.80;51.20;;;;;;5072937;28;20165;-66
2022/07/08 02:47:53;;;;;;;16.40;4.10;;;13.80;54.30;;;;;;5073216;28;20663;-66
2022/07/08 02:50:18;;;;;;;10.80;3.60;;;13.80;54.60;;;;;;5072686;28;20164;-66
2022/07/08 02:52:44;;;;;;;12.30;4.13;;;13.80;56.00;;;;;;5073177;28;20183;-65
2022/07/08 02:55:09;;;;;;;12.00;3.53;;;13.80;57.20;;;;;;5073144;28;20175;-66
2022/07/08 02:57:35;;;;;;;16.73;3.80;;;13.70;57.00;;;;;;5073111;28;20631;-66
2022/07/08 03:00:01;;;;;;;8.23;3.50;;;13.70;60.50;;;;;;5072818;28;20208;-66
2022/07/08 03:02:26;;;;;;;12.97;3.60;;;13.60;59.60;;;;;;5073031;28;20178;-67
2022/07/08 03:04:53;;;;;;;8.83;4.17;;;13.60;64.90;;;;;;5072838;28;20180;-66
2022/07/08 03:07:20;;;;;;;13.73;3.37;;;13.50;67.80;;;;;;5072914;28;20647;-66
2022/07/08 03:09:46;;;;;;;8.30;3.50;;;13.50;69.00;;;;;;5072851;28;20285;-66
2022/07/08 03:12:12;;;;;;;12.40;3.63;;;13.40;71.40;;;;;;5073004;28;20180;-66
2022/07/08 03:14:37;;;;;;;10.43;3.57;;;13.40;78.60;;;;;;5072853;28;20211;-66
2022/07/08 03:17:03;;;;;;;12.80;3.73;;;13.40;77.40;;;;;;5073060;28;20212;-67
2022/07/08 03:19:29;;;;;;;10.83;4.03;;;13.40;77.90;;;;;;5072317;28;20204;-67
2022/07/08 03:21:54;;;;;;;16.47;3.50;;;13.50;77.40;;;;;;5071377;28;20168;-67
2022/07/08 03:24:20;;;;;;;12.83;3.70;;;13.50;76.20;;;;;;5073067;28;20629;-66
2022/07/08 03:26:45;;;;;;;12.30;3.37;;;13.50;78.30;;;;;;5072885;28;20165;-66
2022/07/08 03:29:11;;;;;;;12.40;3.60;;;13.50;76.40;;;;;;5072750;28;20204;-67
2022/07/08 03:31:37;;;;;;;15.23;3.73;;;13.50;81.40;;;;;;5072764;28;20648;-67
2022/07/08 03:34:02;;;;;;;17.90;4.03;;;13.40;82.80;;;;;;5072401;28;20180;-67
2022/07/08 03:36:29;;;;;;;11.53;3.90;;;13.40;82.90;;;;;;5072588;28;20175;-66
2022/07/08 03:38:55;;;;;;;13.60;3.70;;;13.40;83.90;;;;;;5072690;28;20192;-66
2022/07/08 03:41:21;;;;;;;10.73;3.83;;;13.40;87.20;;;;;;5072551;28;20184;-66
2022/07/08 03:43:50;;;;;;;11.90;3.93;;;13.40;85.20;;;;;;5072486;28;20620;-67
2022/07/08 03:46:16;;;;;;;12.63;4.13;;;13.50;82.80;;;;;;5072025;28;20199;-67
2022/07/08 03:48:42;;;;;;;17.30;4.33;;;13.50;80.90;;;;;;5073149;28;20197;-67
2022/07/08 03:51:08;;;;;;;15.77;4.33;;;13.50;84.70;;;;;;5076304;28;20169;-66
2022/07/08 03:53:34;;;;;;;25.03;4.03;;;13.60;85.50;;;;;;5076156;28;20172;-66
2022/07/08 03:56:00;;;;;;;13.27;3.63;;;13.70;87.90;;;;;;5076264;28;20298;-65
2022/07/08 03:58:25;;;;;;;15.73;3.83;;;13.80;82.20;;;;;;5075568;28;20184;-67
2022/07/08 04:00:51;;;;;;;30.37;5.50;;;14.00;78.70;;;;;;5076100;28;20208;-66
2022/07/08 04:03:17;;;;;;;20.53;3.87;;;14.30;70.90;;;;;;5075601;28;20178;-67
2022/07/08 04:05:43;;;;;;;11.83;3.87;;;14.70;63.70;;;;;;5075659;28;20165;-66
2022/07/08 04:08:09;;;;;;;11.70;3.07;;;15.20;55.10;;;;;;5076046;28;20517;-67
2022/07/08 04:10:34;;;;;;;14.17;3.60;;;15.70;29.30;;;;;;5075425;28;20236;-66
2022/07/08 04:13:00;;;;;;;19.60;4.20;;;15.90;1.00;;;;;;5075425;28;20160;-66
2022/07/08 04:15:26;;;;;;;15.17;3.93;;;16.30;1.00;;;;;;5075960;28;20176;-66
2022/07/08 04:17:52;;;;;;;31.47;5.80;;;16.90;1.00;;;;;;5075165;28;20624;-67
2022/07/08 04:20:18;;;;;;;15.70;3.47;;;17.60;1.00;;;;;;5075490;28;20204;-66
2022/07/08 04:22:44;;;;;;;10.27;3.20;;;18.30;1.00;;;;;;5075501;28;20169;-67
2022/07/08 04:25:10;;;;;;;10.67;3.23;;;18.30;1.00;;;;;;5075696;28;20306;-67
2022/07/08 04:27:36;;;;;;;10.40;3.25;;;19.10;1.00;;;;;;5075203;28;20161;-67
2022/07/08 04:30:02;;;;;;;13.00;3.40;;;19.70;99.90;;;;;;5075431;28;20168;-68
2022/07/08 04:32:27;;;;;;;10.02;3.28;;;20.40;30.60;;;;;;5074887;28;20184;-68
2022/07/08 04:34:58;;;;;;;16.95;4.28;;;21.10;1.00;;;;;;5075371;28;20536;-68
2022/07/08 04:37:24;;;;;;;9.63;3.95;;;21.70;1.00;;;;;;5075135;28;20616;-67
2022/07/08 04:39:50;;;;;;;8.23;3.00;;;22.20;99.90;;;;;;5075337;28;20211;-66
2022/07/08 04:42:15;;;;;;;9.13;3.17;;;22.40;10.20;;;;;;5074922;28;20169;-67
2022/07/08 04:44:41;;;;;;;9.30;3.15;;;23.10;1.00;;;;;;5075199;28;20176;-67
2022/07/08 04:47:06;;;;;;;10.07;3.72;;;23.30;99.90;;;;;;5074687;28;20169;-67
2022/07/08 04:49:32;;;;;;;8.15;3.40;;;23.90;1.00;;;;;;5074405;28;20621;-67
2022/07/08 04:51:58;;;;;;;12.63;3.40;;;24.30;1.00;;;;;;5074598;28;20168;-67
2022/07/08 04:54:24;;;;;;;8.02;3.28;;;24.60;1.00;;;;;;5074860;28;20241;-68
2022/07/08 04:56:49;;;;;;;9.88;4.13;;;25.10;1.00;;;;;;5074814;28;20624;-68
2022/07/08 04:59:15;;;;;;;9.98;3.30;;;25.30;1.00;;;;;;5074860;28;20671;-68
2022/07/08 05:01:41;;;;;;;8.27;3.13;;;25.70;99.90;;;;;;5074641;28;20680;-69
2022/07/08 05:04:06;;;;;;;9.32;3.50;;;25.80;99.90;;;;;;5074344;28;20263;-69
2022/07/08 05:06:32;;;;;;;8.93;3.10;;;26.00;99.90;;;;;;5074848;28;20679;-69
2022/07/08 05:08:57;;;;;;;8.93;3.25;;;26.20;99.90;;;;;;5073898;28;20232;-69
2022/07/08 05:11:23;;;;;;;7.15;3.38;;;26.30;99.90;;;;;;5074376;28;20600;-69
2022/07/08 05:13:49;;;;;;;6.22;3.13;;;26.70;99.90;;;;;;5074507;28;20271;-69
2022/07/08 05:16:15;;;;;;;11.70;3.80;;;27.10;99.90;;;;;;5073978;28;20164;-69
2022/07/08 05:18:41;;;;;;;7.18;3.10;;;27.10;99.90;;;;;;5074185;28;20608;-69
2022/07/08 05:21:06;;;;;;;9.32;3.67;;;27.60;99.90;;;;;;5074212;28;20497;-69
2022/07/08 05:23:32;;;;;;;8.70;3.50;;;27.60;99.90;;;;;;5074432;28;20191;-69
2022/07/08 05:25:58;;;;;;;9.70;3.53;;;28.30;99.90;;;;;;5074060;28;20635;-69
2022/07/08 05:28:23;;;;;;;11.63;3.90;;;27.90;99.90;;;;;;5073115;28;20256;-69
2022/07/08 05:30:49;;;;;;;8.85;3.47;;;28.10;99.90;;;;;;5073942;28;20172;-69
2022/07/08 05:33:15;;;;;;;9.23;3.67;;;28.30;99.90;;;;;;5074256;28;20187;-69
2022/07/08 05:35:40;;;;;;;8.75;3.72;;;28.70;99.90;;;;;;5073511;28;20631;-69
2022/07/08 05:38:06;;;;;;;8.25;3.63;;;29.50;99.90;;;;;;5073913;28;20172;-69
2022/07/08 05:40:32;;;;;;;12.07;5.07;;;29.50;99.90;;;;;;5073219;28;20214;-70
2022/07/08 05:42:58;;;;;;;8.35;3.50;;;29.60;99.90;;;;;;5074012;28;20531;-69
2022/07/08 05:45:23;;;;;;;17.45;3.80;;;29.50;99.90;;;;;;5073161;28;20203;-69
2022/07/08 05:47:49;;;;;;;11.90;4.50;;;29.60;99.90;;;;;;5073209;28;20302;-69
2022/07/08 05:50:15;;;;;;;10.55;3.83;;;29.20;99.90;;;;;;5073194;28;20635;-69
2022/07/08 05:52:40;;;;;;;7.28;3.17;;;30.50;99.90;;;;;;5073102;28;20175;-69
2022/07/08 05:55:06;;;;;;;8.30;3.42;;;30.60;99.90;;;;;;5073225;28;20207;-70
2022/07/08 05:57:32;;;;;;;11.52;3.90;;;30.90;99.90;;;;;;5073408;28;20173;-70
2022/07/08 05:59:57;;;;;;;10.95;3.47;;;31.50;99.90;;;;;;5072820;28;20219;-70
2022/07/08 06:02:23;;;;;;;11.30;3.63;;;31.80;99.90;;;;;;5073137;28;20204;-71
2022/07/08 06:04:48;;;;;;;9.27;3.58;;;32.50;99.90;;;;;;5073062;28;20180;-71
2022/07/08 06:07:14;;;;;;;13.32;3.50;;;33.20;99.90;;;;;;5073157;28;20567;-71
2022/07/08 06:09:40;;;;;;;10.80;3.78;;;34.10;96.70;;;;;;5072853;28;20231;-71
2022/07/08 06:12:06;;;;;;;11.93;3.80;;;33.50;91.80;;;;;;5072422;28;20160;-71
2022/07/08 06:14:31;;;;;;;16.15;3.80;;;34.00;85.90;;;;;;5072935;28;20226;-71
2022/07/08 06:16:57;;;;;;;10.85;3.60;;;33.90;81.00;;;;;;5072811;28;20161;-71
2022/07/08 06:19:23;;;;;;;11.00;3.70;;;34.30;73.00;;;;;;5073145;28;20212;-71
2022/07/08 06:21:49;;;;;;;9.95;3.20;;;32.90;94.60;;;;;;5073040;28;20165;-70
2022/07/08 06:24:15;;;;;;;8.10;3.30;;;33.40;73.60;;;;;;5072843;28;20179;-70
2022/07/08 06:26:43;;;;;;;6.18;2.97;;;34.00;67.60;;;;;;5073002;28;20632;-71
2022/07/08 06:29:09;;;;;;;10.23;2.83;;;34.40;61.10;;;;;;5072438;28;20183;-71
2022/07/08 06:31:38;;;;;;;7.68;3.60;;;34.40;57.00;;;;;;5072589;28;20172;-71
2022/07/08 06:34:04;;;;;;;19.85;3.75;;;34.90;50.30;;;;;;5072780;28;20191;-71
2022/07/08 06:36:29;;;;;;;13.43;3.38;;;35.50;47.90;;;;;;5072550;28;20241;-71
2022/07/08 06:38:55;;;;;;;7.40;2.70;;;35.30;41.60;;;;;;5072281;28;20196;-71
2022/07/08 06:41:21;;;;;;;7.03;3.83;;;34.80;36.40;;;;;;5072838;28;20168;-72
2022/07/08 06:43:47;;;;;;;11.20;3.42;;;34.00;39.50;;;;;;5072919;28;20177;-71
2022/07/08 06:46:15;;;;;;;11.85;3.30;;;34.90;38.10;;;;;;5072201;28;20632;-71
2022/07/08 06:48:41;;;;;;;7.85;2.90;;;35.50;34.30;;;;;;5072234;28;20191;-71
2022/07/08 06:51:07;;;;;;;7.45;2.70;;;35.40;30.00;;;;;;5087655;28;20179;-71
2022/07/08 06:56:16;;;;;;;5.93;2.72;;;35.80;27.50;;;;;;5095164;28;20661;-71
2022/07/08 06:58:42;;;;;;;7.30;2.55;;;35.90;23.50;;;;;;5106785;28;20267;-71
2022/07/08 07:01:09;;;;;;;8.68;2.53;;;35.20;21.70;;;;;;5102201;28;20265;-71
2022/07/08 07:03:35;;;;;;;9.40;2.70;;;34.70;24.00;;;;;;5099093;28;20650;-71
2022/07/08 07:06:00;;;;;;;8.80;2.53;;;35.20;22.60;;;;;;5108195;28;20171;-71
2022/07/08 07:08:26;;;;;;;4.95;2.38;;;35.00;16.70;;;;;;5084259;28;20580;-71
2022/07/08 07:10:51;;;;;;;9.30;2.45;;;35.40;21.30;;;;;;5083482;28;20254;-71
2022/07/08 07:13:17;;;;;;;5.57;2.30;;;35.30;19.20;;;;;;5082030;28;20195;-71
2022/07/08 07:15:42;;;;;;;11.00;2.40;;;35.50;19.60;;;;;;5077975;28;20180;-71
2022/07/08 07:18:08;;;;;;;7.03;2.30;;;35.20;18.40;;;;;;5088481;28;20164;-71
2022/07/08 07:20:34;;;;;;;2.67;2.05;;;35.10;20.50;;;;;;5076567;28;20212;-71
2022/07/08 07:23:00;;;;;;;8.23;2.30;;;34.50;20.40;;;;;;5083662;28;20196;-71
2022/07/08 07:25:25;;;;;;;6.10;2.47;;;35.00;19.20;;;;;;5075074;28;20176;-71
2022/07/08 07:27:51;;;;;;;6.28;2.47;;;35.70;16.40;;;;;;5075737;28;20631;-71
2022/07/08 07:30:19;;;;;;;7.22;2.10;;;35.70;13.30;;;;;;5076460;28;20184;-70
2022/07/08 07:32:44;;;;;;;5.07;2.40;;;35.50;14.50;;;;;;5087718;28;20251;-70
2022/07/08 07:35:10;;;;;;;6.60;2.30;;;36.50;12.90;;;;;;5067861;28;20263;-70
2022/07/08 07:37:38;;;;;;;9.48;2.50;;;36.20;9.60;;;;;;5063357;28;20187;-68
2022/07/08 07:40:05;;;;;;;6.10;2.30;;;35.70;11.50;;;;;;5071256;28;20273;-69
2022/07/08 07:42:30;;;;;;;4.80;2.20;;;36.30;23.80;;;;;;5062442;28;20632;-69
2022/07/08 07:44:56;;;;;;;4.20;2.15;;;35.30;7.30;;;;;;5092167;28;20183;-69
2022/07/08 07:47:22;;;;;;;11.77;5.88;;;33.90;25.70;;;;;;5082427;28;20192;-71
2022/07/08 07:49:47;;;;;;;8.40;4.63;;;33.70;11.30;;;;;;5095520;28;20512;-71
2022/07/08 07:52:13;;;;;;;6.82;2.50;;;34.10;14.90;;;;;;5096061;28;20619;-69
2022/07/08 07:54:38;;;;;;;6.95;4.00;;;35.00;11.70;;;;;;5083345;28;20255;-70
2022/07/08 07:57:04;;;;;;;8.30;2.10;;;35.90;9.80;;;;;;5091100;28;20167;-69
2022/07/08 07:59:30;;;;;;;5.63;2.50;;;35.20;9.70;;;;;;5075569;28;20215;-70
2022/07/08 08:01:55;;;;;;;5.55;2.00;;;35.50;8.50;;;;;;5081675;28;20172;-70
2022/07/08 08:04:21;;;;;;;9.13;2.60;;;35.90;6.30;;;;;;5094904;28;20172;-70
2022/07/08 08:06:47;;;;;;;3.60;1.88;;;36.50;3.70;;;;;;5095583;28;20175;-70
2022/07/08 08:09:12;;;;;;;5.22;1.77;;;35.90;2.00;;;;;;5084985;28;20230;-71
2022/07/08 08:11:38;;;;;;;7.93;2.05;;;36.10;1.00;;;;;;5098722;28;20174;-71
2022/07/08 08:14:04;;;;;;;6.75;2.50;;;35.60;1.00;;;;;;5108413;28;20163;-71
2022/07/08 08:16:30;;;;;;;4.53;2.00;;;35.90;1.00;;;;;;5094714;28;20233;-71
2022/07/08 08:18:55;;;;;;;4.20;2.30;;;35.60;1.00;;;;;;5094928;28;20203;-71
2022/07/08 08:21:21;;;;;;;7.25;2.08;;;35.10;1.30;;;;;;5112517;28;20177;-70
2022/07/08 08:23:47;;;;;;;5.18;2.63;;;35.30;1.00;;;;;;5110757;28;20178;-70
2022/07/08 08:26:12;;;;;;;6.05;2.30;;;35.20;1.00;;;;;;5103800;28;20176;-69
2022/07/08 08:28:38;;;;;;;6.00;2.13;;;35.00;1.00;;;;;;5103411;28;20259;-71
2022/07/08 08:31:04;;;;;;;6.35;2.05;;;33.40;1.80;;;;;;5110719;28;20281;-70
2022/07/08 08:33:29;;;;;;;6.00;2.83;;;34.00;3.20;;;;;;5098653;28;20174;-69
2022/07/08 08:35:55;;;;;;;8.80;2.80;;;34.10;3.20;;;;;;5108866;28;20167;-70
2022/07/08 08:38:20;;;;;;;4.13;2.00;;;34.70;2.60;;;;;;5104334;28;20571;-70
2022/07/08 08:40:49;;;;;;;5.13;2.00;;;35.50;1.20;;;;;;5102345;28;20211;-71
2022/07/08 08:43:14;;;;;;;7.50;2.13;;;34.00;1.00;;;;;;5111204;28;20529;-70
2022/07/08 08:45:40;;;;;;;7.20;2.22;;;33.10;4.20;;;;;;5094406;28;20244;-70
2022/07/08 08:48:07;;;;;;;6.28;1.92;;;32.40;10.70;;;;;;5094367;28;20191;-70
2022/07/08 08:50:53;;;;;;;6.63;2.65;;;32.00;10.30;;;;;;5105678;28;20187;-70
2022/07/08 08:53:28;;;;;;;6.32;2.45;;;32.70;11.00;;;;;;5114722;28;20198;-70
2022/07/08 08:55:55;;;;;;;5.60;1.92;;;33.00;11.70;;;;;;5109324;28;20172;-70
2022/07/08 08:58:21;;;;;;;5.95;2.03;;;33.10;8.40;;;;;;5103791;28;20198;-70
2022/07/08 09:00:47;;;;;;;6.78;2.33;;;33.10;9.50;;;;;;5101794;28;20204;-70
2022/07/08 09:03:13;;;;;;;4.53;1.90;;;33.30;7.40;;;;;;5094382;28;20172;-69
2022/07/08 09:05:38;;;;;;;6.65;2.00;;;33.90;3.50;;;;;;5093928;28;20168;-70
2022/07/08 09:08:04;;;;;;;5.63;1.80;;;34.40;1.00;;;;;;5094028;28;20172;-70
2022/07/08 09:10:30;;;;;;;5.70;2.05;;;33.90;1.50;;;;;;5094208;28;20230;-70
2022/07/08 09:13:04;;;;;;;5.90;2.00;;;34.00;3.10;;;;;;5093997;28;20176;-70
2022/07/08 09:15:30;;;;;;;6.10;2.10;;;34.00;2.80;;;;;;5103691;28;20624;-69
2022/07/08 09:17:57;;;;;;;4.40;1.75;;;32.20;9.80;;;;;;5109734;28;20182;-69
2022/07/08 09:20:23;;;;;;;3.63;1.98;;;31.30;11.80;;;;;;5111961;28;20214;-70
2022/07/08 09:22:48;;;;;;;6.07;2.00;;;31.60;11.70;;;;;;5093962;28;20168;-70
2022/07/08 09:25:15;;;;;;;3.45;1.80;;;32.20;11.00;;;;;;5103334;28;20532;-69
2022/07/08 09:27:40;;;;;;;6.18;2.30;;;31.20;9.60;;;;;;5100610;28;20164;-70
2022/07/08 09:30:07;;;;;;;8.60;1.98;;;30.80;15.80;;;;;;5110992;28;20637;-70
2022/07/08 09:32:32;;;;;;;4.57;1.80;;;30.20;17.50;;;;;;5097445;28;20265;-70
2022/07/08 09:34:58;;;;;;;6.45;2.17;;;30.40;18.70;;;;;;5113902;28;20247;-70
2022/07/08 09:37:23;;;;;;;10.15;2.25;;;31.00;18.40;;;;;;5102801;28;20204;-70
2022/07/08 09:39:49;;;;;;;6.35;2.42;;;31.00;20.30;;;;;;5108237;28;20218;-70
2022/07/08 09:42:16;;;;;;;5.60;2.42;;;31.50;18.40;;;;;;5096763;28;20171;-70
2022/07/08 09:44:43;;;;;;;3.80;1.92;;;32.00;16.60;;;;;;5113286;28;20168;-70
2022/07/08 09:47:15;;;;;;;6.47;2.17;;;33.10;13.20;;;;;;5080092;28;20199;-69
2022/07/08 09:49:43;;;;;;;4.72;2.00;;;34.50;11.80;;;;;;5091388;28;20183;-69
2022/07/08 09:52:10;;;;;;;6.78;2.25;;;34.90;6.40;;;;;;5097685;28;20203;-69
2022/07/08 09:54:36;;;;;;;5.90;2.08;;;34.80;3.20;;;;;;5106456;27;20179;-69
2022/07/08 09:57:08;;;;;;;7.05;2.13;;;35.00;1.00;;;;;;5094442;28;20203;-69
2022/07/08 09:59:36;;;;;;;7.93;2.30;;;34.50;1.00;;;;;;5106806;28;20287;-70
2022/07/08 10:02:03;;;;;;;2.55;1.88;;;34.60;1.30;;;;;;5095851;28;20258;-69
2022/07/08 10:04:28;;;;;;;6.65;2.60;;;34.30;1.30;;;;;;5106509;28;20229;-69
2022/07/08 10:06:55;;;;;;;8.50;3.10;;;32.30;7.10;;;;;;5104264;28;20627;-68
2022/07/08 10:09:22;;;;;;;4.90;2.20;;;32.90;10.90;;;;;;5105753;28;20283;-70
2022/07/08 10:11:49;;;;;;;4.15;2.20;;;33.40;8.00;;;;;;5096580;28;20175;-68
2022/07/08 10:14:15;;;;;;;7.13;2.10;;;32.90;8.20;;;;;;5109776;28;20218;-69
2022/07/08 10:16:43;;;;;;;5.65;2.50;;;32.90;8.90;;;;;;5100064;28;20175;-69
2022/07/08 10:19:19;;;;;;;6.85;2.45;;;33.20;9.80;;;;;;5102237;28;20212;-68
2022/07/08 10:21:50;;;;;;;9.60;2.90;;;33.10;11.50;;;;;;5108531;28;20182;-69
2022/07/08 10:24:22;;;;;;;8.60;2.85;;;33.60;11.50;;;;;;5079878;28;20163;-68
2022/07/08 10:26:48;;;;;;;6.63;2.75;;;33.80;23.30;;;;;;5105104;28;20179;-69
2022/07/08 10:29:14;;;;;;;5.15;2.28;;;32.90;7.00;;;;;;5091353;28;20171;-70
2022/07/08 10:31:51;;;;;;;9.25;3.03;;;33.30;12.80;;;;;;5092230;28;20695;-70
2022/07/08 10:34:22;;;;;;;8.65;2.72;;;33.30;12.00;;;;;;5092775;28;20229;-69
2022/07/08 10:36:50;;;;;;;5.85;2.45;;;33.70;8.40;;;;;;5092508;28;20171;-70
2022/07/08 10:39:39;;;;;;;5.75;2.25;;;33.70;8.80;;;;;;5092970;28;20654;-70
2022/07/08 10:42:09;;;;;;;8.30;2.55;;;33.20;11.90;;;;;;5093475;28;20160;-69
2022/07/08 10:44:44;;;;;;;6.60;2.50;;;32.60;11.40;;;;;;5092938;28;20180;-69
2022/07/08 10:47:15;;;;;;;9.07;2.72;;;33.20;10.20;;;;;;5081261;28;20187;-72
2022/07/08 10:49:46;;;;;;;6.28;2.47;;;33.30;12.20;;;;;;5083907;28;20182;-69
2022/07/08 10:52:13;;;;;;;7.45;3.03;;;33.40;11.80;;;;;;5079685;28;20176;-72
2022/07/08 10:54:39;;;;;;;6.25;2.63;;;33.10;12.10;;;;;;5080967;28;20187;-74
2022/07/08 10:57:09;;;;;;;5.88;2.30;;;32.70;11.40;;;;;;5091989;28;20313;-73
2022/07/08 10:59:38;;;;;;;9.65;2.55;;;31.90;15.80;;;;;;5093354;28;20234;-70
2022/07/08 11:02:06;;;;;;;5.82;2.78;;;31.10;19.10;;;;;;5088984;28;20229;-72
2022/07/08 11:04:35;;;;;;;6.80;2.30;;;31.00;22.20;;;;;;5080067;28;20183;-69
2022/07/08 11:07:26;;;;;;;3.72;2.30;;;30.60;26.60;;;;;;5086936;28;20199;-69
2022/07/08 11:10:07;;;;;;;5.30;2.08;;;31.10;31.30;;;;;;5084259;28;20208;-71
2022/07/08 11:12:37;;;;;;;6.40;2.60;;;31.50;31.50;;;;;;5092855;28;20634;-70
2022/07/08 11:15:10;;;;;;;7.18;2.50;;;32.00;28.20;;;;;;5093026;28;20182;-70
2022/07/08 11:17:37;;;;;;;5.00;2.50;;;32.20;26.10;;;;;;5093288;28;20167;-70
2022/07/08 11:20:10;;;;;;;4.15;2.60;;;32.40;25.00;;;;;;5092541;28;20670;-70
2022/07/08 11:22:38;;;;;;;6.55;3.25;;;32.70;26.10;;;;;;5092571;28;20168;-70
2022/07/08 11:25:05;;;;;;;8.32;3.45;;;32.80;23.80;;;;;;5092359;28;20176;-69
2022/07/08 11:27:33;;;;;;;5.00;2.25;;;32.80;23.50;;;;;;5109304;28;20182;-69
2022/07/08 11:30:00;;;;;;;3.67;2.13;;;32.60;22.90;;;;;;5106375;28;20168;-69
2022/07/08 11:32:27;;;;;;;3.45;2.10;;;32.10;23.80;;;;;;5092299;28;20176;-69
2022/07/08 11:34:54;;;;;;;6.88;2.47;;;31.70;27.00;;;;;;5104947;28;20191;-69
2022/07/08 11:37:21;;;;;;;4.30;2.13;;;31.30;27.40;;;;;;5089141;28;20177;-69
2022/07/08 11:39:47;;;;;;;4.15;1.88;;;31.50;29.60;;;;;;5110487;28;20207;-70
2022/07/08 11:42:14;;;;;;;5.85;2.83;;;31.60;30.90;;;;;;5103646;28;20619;-69
2022/07/08 11:44:40;;;;;;;4.88;2.50;;;31.30;29.60;;;;;;5103865;28;20163;-69
2022/07/08 11:47:06;;;;;;;6.68;2.83;;;31.80;32.30;;;;;;5110696;28;20219;-69
2022/07/08 11:49:33;;;;;;;6.75;2.90;;;31.70;34.00;;;;;;5094901;28;20160;-69
2022/07/08 11:51:59;;;;;;;5.93;2.42;;;30.90;35.00;;;;;;5110901;28;20674;-69
2022/07/08 11:54:28;;;;;;;8.00;2.45;;;29.40;45.10;;;;;;5111212;28;20220;-69
2022/07/08 11:56:55;;;;;;;5.22;2.05;;;29.10;62.60;;;;;;5098113;28;20199;-69
2022/07/08 11:59:26;;;;;;;5.95;2.20;;;29.50;72.50;;;;;;5091052;28;20303;-69
2022/07/08 12:01:53;;;;;;;4.50;2.20;;;29.50;94.40;;;;;;5091595;28;20678;-69
2022/07/08 12:04:19;;;;;;;6.40;2.50;;;29.60;85.30;;;;;;5091656;28;20172;-69
2022/07/08 12:06:51;;;;;;;8.60;2.42;;;29.30;85.60;;;;;;5092027;28;20164;-69
2022/07/08 12:09:18;;;;;;;5.60;2.30;;;29.30;93.20;;;;;;5090347;28;20243;-69
2022/07/08 12:11:46;;;;;;;7.00;2.33;;;29.00;94.00;;;;;;5096783;28;20164;-69
2022/07/08 12:14:13;;;;;;;6.15;2.17;;;29.00;99.90;;;;;;5099925;28;20509;-69
2022/07/08 12:16:45;;;;;;;6.15;2.22;;;28.70;99.90;;;;;;5088915;28;20173;-69
2022/07/08 12:19:32;;;;;;;4.85;2.80;;;27.40;99.90;;;;;;5104175;27;20654;-68
2022/07/08 12:21:59;;;;;;;5.47;2.42;;;26.40;99.90;;;;;;5096391;28;20175;-68
2022/07/08 12:24:37;;;;;;;4.70;2.15;;;26.80;99.90;;;;;;5103184;28;20159;-68
2022/07/08 12:27:06;;;;;;;7.07;2.38;;;26.60;99.90;;;;;;5108782;28;20176;-69
2022/07/08 12:29:34;;;;;;;6.13;2.80;;;26.70;99.90;;;;;;5104099;28;20172;-68
2022/07/08 12:32:00;;;;;;;10.25;2.65;;;27.00;99.90;;;;;;5104170;28;20190;-68
2022/07/08 12:34:26;;;;;;;5.88;2.20;;;27.10;99.90;;;;;;5103232;28;20667;-68
2022/07/08 12:36:52;;;;;;;5.03;1.92;;;27.20;99.90;;;;;;5110508;28;20176;-68
2022/07/08 12:39:27;;;;;;;9.88;2.35;;;27.00;99.90;;;;;;5101965;28;20316;-67
2022/07/08 12:42:06;;;;;;;5.05;1.98;;;26.40;99.90;;;;;;5095632;28;20251;-70
2022/07/08 12:44:39;;;;;;;5.07;2.17;;;26.60;99.90;;;;;;5101942;28;20312;-68
2022/07/08 12:47:05;;;;;;;5.35;1.98;;;27.00;99.90;;;;;;5108643;28;20198;-69
2022/07/08 12:49:33;;;;;;;4.30;1.98;;;27.40;99.90;;;;;;5103816;28;20160;-70